createdAt,value
2019-03-30T00:01:24.345Z,49.47
2019-03-30T00:02:58.118Z,51.50
2019-03-30T00:04:31.834Z,50.27
2019-03-30T00:06:07.127Z,49.57
2019-03-30T00:07:40.830Z,56.83
2019-03-30T00:09:14.512Z,54.23
2019-03-30T00:10:48.232Z,53.30
2019-03-30T00:12:23.102Z,56.90
2019-03-30T00:13:56.873Z,47.33
2019-03-30T00:15:30.567Z,45.23
2019-03-30T00:17:04.214Z,52.00
2019-03-30T00:18:41.225Z,44.40
2019-03-30T00:20:14.338Z,45.63
2019-03-30T00:21:48.563Z,42.50
2019-03-30T00:23:22.877Z,43.00
2019-03-30T00:24:57.232Z,37.67
2019-03-30T00:26:31.448Z,31.57
2019-03-30T00:28:05.746Z,36.48
2019-03-30T00:29:41.020Z,32.63
2019-03-30T00:31:15.196Z,33.97
2019-03-30T00:32:48.847Z,40.57
2019-03-30T00:34:22.586Z,33.57
2019-03-30T00:35:56.390Z,39.33
2019-03-30T00:37:30.476Z,48.50
2019-03-30T00:39:06.547Z,48.08
2019-03-30T00:40:40.248Z,45.93
2019-03-30T00:42:14.626Z,35.05
2019-03-30T00:43:48.664Z,36.33
2019-03-30T00:45:22.306Z,44.50
2019-03-30T00:46:55.999Z,37.50
2019-03-30T00:48:29.678Z,37.03
2019-03-30T00:50:04.043Z,33.50
2019-03-30T00:51:37.761Z,39.50
2019-03-30T00:53:11.448Z,35.33
2019-03-30T00:54:45.218Z,38.87
2019-03-30T00:56:19.123Z,53.40
2019-03-30T00:57:54.409Z,50.40
2019-03-30T00:59:28.077Z,44.30
2019-03-30T01:01:01.848Z,45.83
2019-03-30T01:02:38.105Z,46.77
2019-03-30T01:04:11.719Z,45.23
2019-03-30T01:05:45.440Z,42.80
2019-03-30T01:07:19.252Z,40.73
2019-03-30T01:08:53.411Z,39.70
2019-03-30T01:10:27.841Z,40.40
2019-03-30T01:12:01.585Z,43.33
2019-03-30T01:13:35.305Z,41.27
2019-03-30T01:15:09.457Z,40.88
2019-03-30T01:16:43.161Z,32.83
2019-03-30T01:18:16.876Z,36.03
2019-03-30T01:20:02.422Z,38.20
2019-03-30T01:21:26.289Z,45.33
2019-03-30T01:23:00.019Z,43.53
2019-03-30T01:24:33.758Z,45.70
2019-03-30T01:26:08.150Z,40.67
2019-03-30T01:27:42.079Z,37.33
2019-03-30T01:29:15.690Z,39.53
2019-03-30T01:30:49.445Z,33.70
2019-03-30T01:32:23.068Z,38.17
2019-03-30T01:33:57.287Z,39.90
2019-03-30T01:35:30.994Z,34.40
2019-03-30T01:37:04.681Z,33.60
2019-03-30T01:38:38.387Z,32.50
2019-03-30T01:40:12.458Z,36.77
2019-03-30T01:41:46.233Z,38.57
2019-03-30T01:43:19.909Z,28.97
2019-03-30T01:44:53.611Z,34.00
2019-03-30T01:46:27.766Z,30.20
2019-03-30T01:48:01.409Z,31.40
2019-03-30T01:49:35.163Z,35.20
2019-03-30T01:51:10.304Z,36.50
2019-03-30T01:52:44.410Z,35.93
2019-03-30T01:54:18.095Z,33.40
2019-03-30T01:55:51.809Z,32.33
2019-03-30T01:57:25.790Z,27.00
2019-03-30T01:58:59.700Z,29.53
2019-03-30T02:00:33.910Z,30.52
2019-03-30T02:02:07.530Z,36.77
2019-03-30T02:03:41.213Z,41.73
2019-03-30T02:05:15.309Z,48.70
2019-03-30T02:06:49.007Z,41.30
2019-03-30T02:08:22.706Z,57.17
2019-03-30T02:09:57.037Z,45.08
2019-03-30T02:11:31.834Z,43.33
2019-03-30T02:13:06.675Z,42.30
2019-03-30T02:14:40.378Z,42.83
2019-03-30T02:16:14.128Z,38.37
2019-03-30T02:17:48.238Z,40.83
2019-03-30T02:19:22.235Z,49.63
2019-03-30T02:20:55.897Z,41.50
2019-03-30T02:22:29.599Z,46.17
2019-03-30T02:24:03.764Z,49.40
2019-03-30T02:25:37.413Z,45.50
2019-03-30T02:27:11.749Z,44.73
2019-03-30T02:28:45.424Z,45.27
2019-03-30T02:30:19.377Z,39.70
2019-03-30T02:31:53.012Z,44.73
2019-03-30T02:33:27.299Z,46.95
2019-03-30T02:35:00.947Z,43.20
2019-03-30T02:36:35.293Z,43.30
2019-03-30T02:38:09.563Z,44.30
2019-03-30T02:39:43.793Z,44.40
2019-03-30T02:41:17.494Z,46.70
2019-03-30T02:42:51.699Z,46.97
2019-03-30T02:44:25.965Z,53.23
2019-03-30T02:45:59.544Z,44.57
2019-03-30T02:47:33.193Z,42.07
2019-03-30T02:49:07.210Z,40.33
2019-03-30T02:50:50.109Z,37.47
2019-03-30T02:52:16.808Z,36.77
2019-03-30T02:53:50.533Z,32.87
2019-03-30T02:55:24.415Z,28.47
2019-03-30T02:56:59.556Z,25.57
2019-03-30T02:58:33.348Z,25.97
2019-03-30T03:00:09.952Z,24.10
2019-03-30T03:01:43.972Z,29.93
2019-03-30T03:03:17.631Z,27.37
2019-03-30T03:04:51.395Z,34.97
2019-03-30T03:06:25.117Z,28.80
2019-03-30T03:08:00.383Z,29.87
2019-03-30T03:09:34.162Z,30.67
2019-03-30T03:11:07.861Z,32.17
2019-03-30T03:12:41.582Z,30.93
2019-03-30T03:14:16.288Z,30.72
2019-03-30T03:15:50.188Z,32.73
2019-03-30T03:17:25.234Z,34.57
2019-03-30T03:18:59.490Z,34.85
2019-03-30T03:20:33.412Z,35.83
2019-03-30T03:22:07.154Z,29.80
2019-03-30T03:23:40.802Z,36.63
2019-03-30T03:25:14.456Z,41.67
2019-03-30T03:26:48.724Z,32.17
2019-03-30T03:28:22.468Z,36.60
2019-03-30T03:29:56.227Z,32.50
2019-03-30T03:31:30.318Z,34.07
2019-03-30T03:33:04.354Z,35.83
2019-03-30T03:34:38.027Z,47.30
2019-03-30T03:36:11.735Z,38.60
2019-03-30T03:37:46.519Z,36.10
2019-03-30T03:39:21.395Z,35.07
2019-03-30T03:40:55.131Z,32.93
2019-03-30T03:42:28.865Z,36.40
2019-03-30T03:44:02.580Z,41.43
2019-03-30T03:45:36.462Z,40.87
2019-03-30T03:47:10.265Z,46.13
2019-03-30T03:48:44.054Z,39.17
2019-03-30T03:50:43.005Z,48.27
2019-03-30T03:52:17.816Z,44.35
2019-03-30T03:53:51.860Z,43.13
2019-03-30T03:55:25.675Z,42.77
2019-03-30T03:57:00.196Z,42.67
2019-03-30T03:58:36.040Z,45.63
2019-03-30T04:00:10.222Z,39.30
2019-03-30T04:01:45.653Z,42.47
2019-03-30T04:03:21.815Z,41.18
2019-03-30T04:04:56.414Z,44.47
2019-03-30T04:06:32.816Z,46.00
2019-03-30T04:08:08.631Z,47.80
2019-03-30T04:09:45.839Z,42.63
2019-03-30T04:11:22.397Z,38.83
2019-03-30T04:12:58.609Z,40.57
2019-03-30T04:14:35.171Z,41.03
2019-03-30T04:16:09.655Z,39.67
2019-03-30T04:17:43.881Z,40.40
2019-03-30T04:19:17.681Z,60.33
2019-03-30T04:20:51.952Z,42.08
2019-03-30T04:22:25.956Z,40.87
2019-03-30T04:23:59.709Z,55.80
2019-03-30T04:25:33.955Z,61.25
2019-03-30T04:27:07.745Z,49.93
2019-03-30T04:28:42.283Z,56.40
2019-03-30T04:30:16.630Z,54.10
2019-03-30T04:31:51.086Z,51.53
2019-03-30T04:33:25.335Z,36.03
2019-03-30T04:35:00.504Z,37.90
2019-03-30T04:36:34.164Z,42.13
2019-03-30T04:38:08.493Z,37.53
2019-03-30T04:39:42.128Z,39.43
2019-03-30T04:41:16.254Z,36.63
2019-03-30T04:42:49.947Z,39.90
2019-03-30T04:44:23.701Z,37.53
2019-03-30T04:45:57.467Z,33.97
2019-03-30T04:47:31.458Z,36.80
2019-03-30T04:49:05.751Z,35.03
2019-03-30T04:50:40.542Z,34.10
2019-03-30T04:52:14.146Z,40.53
2019-03-30T04:53:48.178Z,42.80
2019-03-30T04:55:21.799Z,40.17
2019-03-30T04:56:55.543Z,34.97
2019-03-30T04:58:29.197Z,42.97
2019-03-30T05:00:03.771Z,37.63
2019-03-30T05:01:37.484Z,46.07
2019-03-30T05:03:11.146Z,54.73
2019-03-30T05:04:45.412Z,37.13
2019-03-30T05:06:19.828Z,41.50
2019-03-30T05:07:53.534Z,44.77
2019-03-30T05:09:27.790Z,39.13
2019-03-30T05:11:02.301Z,37.93
2019-03-30T05:12:36.517Z,43.37
2019-03-30T05:14:10.193Z,40.10
2019-03-30T05:15:43.851Z,45.17
2019-03-30T05:17:18.211Z,44.13
2019-03-30T05:18:52.125Z,50.17
2019-03-30T05:20:26.441Z,39.73
2019-03-30T05:22:11.421Z,38.40
2019-03-30T05:23:35.929Z,39.03
2019-03-30T05:25:09.884Z,42.17
2019-03-30T05:26:44.174Z,41.00
2019-03-30T05:28:18.417Z,53.42
2019-03-30T05:29:52.109Z,49.83
2019-03-30T05:31:26.208Z,53.03
2019-03-30T05:33:06.060Z,42.55
2019-03-30T05:34:36.403Z,41.65
2019-03-30T05:36:10.710Z,51.08
2019-03-30T05:37:45.330Z,46.40
2019-03-30T05:39:19.547Z,45.58
2019-03-30T05:40:53.261Z,38.63
2019-03-30T05:42:27.509Z,84.10
2019-03-30T05:44:01.997Z,55.55
2019-03-30T05:45:36.279Z,38.90
2019-03-30T05:47:10.516Z,30.35
2019-03-30T05:48:44.736Z,29.15
2019-03-30T05:50:18.773Z,31.20
2019-03-30T05:51:53.002Z,34.45
2019-03-30T05:53:27.054Z,36.13
2019-03-30T05:55:01.288Z,33.90
2019-03-30T05:56:35.725Z,45.33
2019-03-30T05:58:09.958Z,42.10
2019-03-30T05:59:44.211Z,30.15
2019-03-30T06:01:18.469Z,27.70
2019-03-30T06:02:52.946Z,27.67
2019-03-30T06:04:28.821Z,26.60
2019-03-30T06:06:03.128Z,28.42
2019-03-30T06:07:37.391Z,23.32
2019-03-30T06:09:12.337Z,21.68
2019-03-30T06:10:46.583Z,23.02
2019-03-30T06:12:20.813Z,22.20
2019-03-30T06:13:55.100Z,26.27
2019-03-30T06:15:29.505Z,29.15
2019-03-30T06:17:03.156Z,31.10
2019-03-30T06:18:38.582Z,34.30
2019-03-30T06:20:12.956Z,26.37
2019-03-30T06:21:47.569Z,26.52
2019-03-30T06:23:21.818Z,36.03
2019-03-30T06:24:56.408Z,28.80
2019-03-30T06:26:30.773Z,42.93
2019-03-30T06:28:05.429Z,31.42
2019-03-30T06:29:39.730Z,30.92
2019-03-30T06:31:13.992Z,36.75
2019-03-30T06:32:48.248Z,34.73
2019-03-30T06:34:22.857Z,26.20
2019-03-30T06:35:57.148Z,31.02
2019-03-30T06:37:31.377Z,37.58
2019-03-30T06:39:06.210Z,26.23
2019-03-30T06:40:40.872Z,23.95
2019-03-30T06:42:15.114Z,24.32
2019-03-30T06:43:49.849Z,33.83
2019-03-30T06:45:24.207Z,25.17
2019-03-30T06:46:58.998Z,29.15
2019-03-30T06:48:35.926Z,43.63
2019-03-30T06:50:10.147Z,39.63
2019-03-30T06:51:44.395Z,34.78
2019-03-30T06:53:18.907Z,38.75
2019-03-30T06:54:53.235Z,40.58
2019-03-30T06:56:27.746Z,47.30
2019-03-30T06:58:02.052Z,47.03
2019-03-30T06:59:36.652Z,53.30
2019-03-30T07:01:11.183Z,53.92
2019-03-30T07:02:45.795Z,51.98
2019-03-30T07:04:20.231Z,55.12
2019-03-30T07:05:55.800Z,46.95
2019-03-30T07:07:30.732Z,56.02
2019-03-30T07:09:06.592Z,56.25
2019-03-30T07:10:40.914Z,55.95
2019-03-30T07:12:17.695Z,66.67
2019-03-30T07:13:54.577Z,60.20
2019-03-30T07:15:31.086Z,61.88
2019-03-30T07:17:06.830Z,61.68
2019-03-30T07:18:43.475Z,65.42
2019-03-30T07:20:26.417Z,65.72
2019-03-30T07:22:00.825Z,68.02
2019-03-30T07:23:35.191Z,61.73
2019-03-30T07:25:09.805Z,54.50
2019-03-30T07:26:44.022Z,54.58
2019-03-30T07:28:18.302Z,45.17
2019-03-30T07:29:52.577Z,46.65
2019-03-30T07:31:27.740Z,50.58
2019-03-30T07:33:02.030Z,51.83
2019-03-30T07:34:36.255Z,49.98
2019-03-30T07:36:10.542Z,46.45
2019-03-30T07:37:44.992Z,48.52
2019-03-30T07:39:18.669Z,45.23
2019-03-30T07:40:52.915Z,30.45
2019-03-30T07:42:27.215Z,28.55
2019-03-30T07:44:02.232Z,28.12
2019-03-30T07:45:36.471Z,28.25
2019-03-30T07:47:10.795Z,39.53
2019-03-30T07:48:45.014Z,37.83
2019-03-30T07:50:20.192Z,36.28
2019-03-30T07:51:54.538Z,33.10
2019-03-30T07:53:28.771Z,30.85
2019-03-30T07:55:03.050Z,33.50
2019-03-30T07:56:37.762Z,33.53
2019-03-30T07:58:11.989Z,29.75
2019-03-30T07:59:46.242Z,25.88
2019-03-30T08:01:22.455Z,34.50
2019-03-30T08:02:56.961Z,28.55
2019-03-30T08:04:31.185Z,31.23
2019-03-30T08:06:05.501Z,32.05
2019-03-30T08:07:39.818Z,41.50
2019-03-30T08:09:14.391Z,44.08
2019-03-30T08:10:48.690Z,41.10
2019-03-30T08:12:23.014Z,37.67
2019-03-30T08:13:57.344Z,41.65
2019-03-30T08:15:31.831Z,26.90
2019-03-30T08:17:06.222Z,29.45
2019-03-30T08:18:40.523Z,24.82
2019-03-30T08:20:15.341Z,21.65
2019-03-30T08:21:49.768Z,30.45
2019-03-30T08:23:24.108Z,26.00
2019-03-30T08:24:58.437Z,24.50
2019-03-30T08:26:35.461Z,23.85
2019-03-30T08:28:09.088Z,30.52
2019-03-30T08:29:43.835Z,29.67
2019-03-30T08:31:20.317Z,27.90
2019-03-30T08:32:54.543Z,33.25
2019-03-30T08:34:29.223Z,33.08
2019-03-30T08:36:03.457Z,33.23
2019-03-30T08:37:37.751Z,40.90
2019-03-30T08:39:12.028Z,30.40
2019-03-30T08:40:46.662Z,31.93
2019-03-30T08:42:21.504Z,35.28
2019-03-30T08:43:55.851Z,34.85
2019-03-30T08:45:30.652Z,29.25
2019-03-30T08:47:05.222Z,31.30
2019-03-30T08:48:39.505Z,36.20
2019-03-30T08:50:14.350Z,39.48
2019-03-30T08:51:48.601Z,33.25
2019-03-30T08:53:23.058Z,37.20
2019-03-30T08:54:57.348Z,39.10
2019-03-30T08:56:31.622Z,36.63
2019-03-30T08:58:05.857Z,33.00
2019-03-30T08:59:40.443Z,37.65
2019-03-30T09:01:14.726Z,29.00
2019-03-30T09:02:48.999Z,30.45
2019-03-30T09:04:23.304Z,33.90
2019-03-30T09:05:57.890Z,32.03
2019-03-30T09:07:32.194Z,28.15
2019-03-30T09:09:08.190Z,31.60
2019-03-30T09:10:42.426Z,30.20
2019-03-30T09:12:17.084Z,41.18
2019-03-30T09:13:51.293Z,36.55
2019-03-30T09:15:25.604Z,26.23
2019-03-30T09:16:59.856Z,40.00
2019-03-30T09:18:34.599Z,44.38
2019-03-30T09:20:08.937Z,34.33
2019-03-30T09:21:44.078Z,35.65
2019-03-30T09:23:18.362Z,69.37
2019-03-30T09:24:52.779Z,39.35
2019-03-30T09:26:27.703Z,46.53
2019-03-30T09:28:02.078Z,29.25
2019-03-30T09:29:36.290Z,29.02
2019-03-30T09:31:10.840Z,24.45
2019-03-30T09:32:45.378Z,23.73
2019-03-30T09:34:19.905Z,32.75
2019-03-30T09:35:54.134Z,34.55
2019-03-30T09:37:28.615Z,28.30
2019-03-30T09:39:04.613Z,26.30
2019-03-30T09:40:40.508Z,21.05
2019-03-30T09:42:14.751Z,22.67
2019-03-30T09:43:51.149Z,23.12
2019-03-30T09:45:25.492Z,22.02
2019-03-30T09:46:59.701Z,25.37
2019-03-30T09:48:34.017Z,22.30
2019-03-30T09:50:10.069Z,22.67
2019-03-30T09:51:44.358Z,24.60
2019-03-30T09:53:18.578Z,20.40
2019-03-30T09:54:52.806Z,22.32
2019-03-30T09:56:27.506Z,20.43
2019-03-30T09:58:01.710Z,20.50
2019-03-30T09:59:36.155Z,19.92
2019-03-30T10:01:10.698Z,21.35
2019-03-30T10:02:45.234Z,24.37
2019-03-30T10:04:19.538Z,20.17
2019-03-30T10:05:53.833Z,23.25
2019-03-30T10:07:28.150Z,20.43
2019-03-30T10:09:02.605Z,20.10
2019-03-30T10:10:36.905Z,21.48
2019-03-30T10:12:11.265Z,23.55
2019-03-30T10:13:45.583Z,27.77
2019-03-30T10:15:20.364Z,24.47
2019-03-30T10:16:56.169Z,19.57
2019-03-30T10:18:30.517Z,20.48
2019-03-30T10:20:07.347Z,24.15
2019-03-30T10:21:42.010Z,19.12
2019-03-30T10:23:16.427Z,20.52
2019-03-30T10:24:50.726Z,21.23
2019-03-30T10:26:25.015Z,26.40
2019-03-30T10:27:59.446Z,20.40
2019-03-30T10:29:33.730Z,22.27
2019-03-30T10:31:08.063Z,22.20
2019-03-30T10:32:42.383Z,20.75
2019-03-30T10:34:17.010Z,22.10
2019-03-30T10:35:54.188Z,21.15
2019-03-30T10:37:29.924Z,19.77
2019-03-30T10:39:05.662Z,24.07
2019-03-30T10:40:40.288Z,23.42
2019-03-30T10:42:14.540Z,21.02
2019-03-30T10:43:48.803Z,21.97
2019-03-30T10:45:23.017Z,25.10
2019-03-30T10:46:58.173Z,29.75
2019-03-30T10:48:32.492Z,25.30
2019-03-30T10:50:07.722Z,26.52
2019-03-30T10:51:45.214Z,23.98
2019-03-30T10:53:19.900Z,21.77
2019-03-30T10:54:54.123Z,24.90
2019-03-30T10:56:28.342Z,23.90
2019-03-30T10:58:02.710Z,27.80
2019-03-30T10:59:37.163Z,27.75
2019-03-30T11:01:11.395Z,24.02
2019-03-30T11:02:46.084Z,23.80
2019-03-30T11:04:20.407Z,21.05
2019-03-30T11:05:55.013Z,29.02
2019-03-30T11:07:29.296Z,27.00
2019-03-30T11:09:04.351Z,25.45
2019-03-30T11:10:38.593Z,27.60
2019-03-30T11:12:13.167Z,21.65
2019-03-30T11:13:47.386Z,28.45
2019-03-30T11:15:21.737Z,26.97
2019-03-30T11:16:55.996Z,27.90
2019-03-30T11:18:30.331Z,28.12
2019-03-30T11:20:05.512Z,25.25
2019-03-30T11:21:39.820Z,24.40
2019-03-30T11:23:14.146Z,20.77
2019-03-30T11:24:48.561Z,23.60
2019-03-30T11:26:22.880Z,23.65
2019-03-30T11:27:57.109Z,21.70
2019-03-30T11:29:31.413Z,25.02
2019-03-30T11:31:06.027Z,22.10
2019-03-30T11:32:40.261Z,22.98
2019-03-30T11:34:14.488Z,22.25
2019-03-30T11:35:48.837Z,19.52
2019-03-30T11:37:23.569Z,21.55
2019-03-30T11:38:57.846Z,18.87
2019-03-30T11:40:32.120Z,21.42
2019-03-30T11:42:06.361Z,20.43
2019-03-30T11:43:40.922Z,20.35
2019-03-30T11:45:15.189Z,19.37
2019-03-30T11:46:49.455Z,21.93
2019-03-30T11:48:23.689Z,20.40
2019-03-30T11:49:58.686Z,18.75
2019-03-30T11:51:33.041Z,18.10
2019-03-30T11:53:07.304Z,20.00
2019-03-30T11:54:41.524Z,19.27
2019-03-30T11:56:16.032Z,18.92
2019-03-30T11:57:50.270Z,21.93
2019-03-30T11:59:24.506Z,22.67
2019-03-30T12:00:58.774Z,21.90
2019-03-30T12:02:33.373Z,24.12
2019-03-30T12:04:07.683Z,23.02
2019-03-30T12:05:42.009Z,22.37
2019-03-30T12:07:16.326Z,18.52
2019-03-30T12:08:50.804Z,19.82
2019-03-30T12:10:25.111Z,21.05
2019-03-30T12:11:59.367Z,24.85
2019-03-30T12:13:33.701Z,23.83
2019-03-30T12:15:09.284Z,23.80
2019-03-30T12:16:43.509Z,20.92
2019-03-30T12:18:17.748Z,21.95
2019-03-30T12:19:52.051Z,20.97
2019-03-30T12:21:26.734Z,20.88
2019-03-30T12:23:00.987Z,22.35
2019-03-30T12:24:35.297Z,20.12
2019-03-30T12:26:09.630Z,17.57
2019-03-30T12:27:44.002Z,19.32
2019-03-30T12:29:18.292Z,24.98
2019-03-30T12:30:52.605Z,21.37
2019-03-30T12:32:26.841Z,25.02
2019-03-30T12:34:01.527Z,23.10
2019-03-30T12:35:35.793Z,22.70
2019-03-30T12:37:10.303Z,16.07
2019-03-30T12:38:44.559Z,20.08
2019-03-30T12:40:19.055Z,21.05
2019-03-30T12:41:53.318Z,20.48
2019-03-30T12:43:29.054Z,27.95
2019-03-30T12:45:04.334Z,19.42
2019-03-30T12:46:38.776Z,25.32
2019-03-30T12:48:13.080Z,24.32
2019-03-30T12:49:47.353Z,21.42
2019-03-30T12:51:21.571Z,22.00
2019-03-30T12:52:57.891Z,21.95
2019-03-30T12:54:32.114Z,18.35
2019-03-30T12:56:09.000Z,23.00
2019-03-30T12:57:43.566Z,20.68
2019-03-30T12:59:18.299Z,23.27
2019-03-30T13:00:52.570Z,20.95
2019-03-30T13:02:26.890Z,21.97
2019-03-30T13:04:01.286Z,22.80
2019-03-30T13:05:35.926Z,26.05
2019-03-30T13:07:10.240Z,22.02
2019-03-30T13:08:44.587Z,19.77
2019-03-30T13:10:18.923Z,20.75
2019-03-30T13:11:53.586Z,26.15
2019-03-30T13:13:27.941Z,18.23
2019-03-30T13:15:02.167Z,21.50
2019-03-30T13:16:36.481Z,19.40
2019-03-30T13:18:10.925Z,33.00
2019-03-30T13:19:45.149Z,22.87
2019-03-30T13:21:19.462Z,24.02
2019-03-30T13:22:53.682Z,20.57
2019-03-30T13:24:28.208Z,19.15
2019-03-30T13:26:03.740Z,19.10
2019-03-30T13:27:38.487Z,22.65
2019-03-30T13:29:14.233Z,18.42
2019-03-30T13:30:48.911Z,17.10
2019-03-30T13:32:23.280Z,21.30
2019-03-30T13:33:57.622Z,18.98
2019-03-30T13:35:31.934Z,21.15
2019-03-30T13:37:15.073Z,17.23
2019-03-30T13:38:49.339Z,20.55
2019-03-30T13:40:23.653Z,17.17
2019-03-30T13:41:57.913Z,16.32
2019-03-30T13:43:32.416Z,16.23
2019-03-30T13:45:09.886Z,17.90
2019-03-30T13:46:44.304Z,16.73
2019-03-30T13:48:18.662Z,19.57
2019-03-30T13:49:53.080Z,22.95
2019-03-30T13:51:27.351Z,18.75
2019-03-30T13:53:01.646Z,16.60
2019-03-30T13:54:38.634Z,16.25
2019-03-30T13:56:17.478Z,20.23
2019-03-30T13:57:48.489Z,20.50
2019-03-30T13:59:22.935Z,21.05
2019-03-30T14:00:57.255Z,16.90
2019-03-30T14:02:33.264Z,16.27
2019-03-30T14:04:07.528Z,21.45
2019-03-30T14:05:41.990Z,18.52
2019-03-30T14:07:16.281Z,25.60
2019-03-30T14:08:50.912Z,15.53
2019-03-30T14:10:27.253Z,16.70
2019-03-30T14:12:03.045Z,16.07
2019-03-30T14:13:37.357Z,20.77
2019-03-30T14:15:12.047Z,26.07
2019-03-30T14:16:46.295Z,19.32
2019-03-30T14:18:20.586Z,14.03
2019-03-30T14:19:55.296Z,15.15
2019-03-30T14:21:30.019Z,18.90
2019-03-30T14:23:04.278Z,16.67
2019-03-30T14:24:38.520Z,20.25
2019-03-30T14:26:12.869Z,25.08
2019-03-30T14:27:47.980Z,21.80
2019-03-30T14:29:22.259Z,20.82
2019-03-30T14:30:56.536Z,23.07
2019-03-30T14:32:30.791Z,20.90
2019-03-30T14:34:05.319Z,16.20
2019-03-30T14:35:39.551Z,17.27
2019-03-30T14:37:13.794Z,58.55
2019-03-30T14:38:48.129Z,20.75
2019-03-30T14:40:22.658Z,18.23
2019-03-30T14:41:58.539Z,18.50
2019-03-30T14:43:32.773Z,18.40
2019-03-30T14:45:10.727Z,20.40
2019-03-30T14:46:45.224Z,21.17
2019-03-30T14:48:19.541Z,20.08
2019-03-30T14:49:53.847Z,21.73
2019-03-30T14:51:28.177Z,16.48
2019-03-30T14:53:02.805Z,17.80
2019-03-30T14:54:37.123Z,22.37
2019-03-30T14:56:12.378Z,20.10
2019-03-30T14:57:46.613Z,17.42
2019-03-30T14:59:20.968Z,15.93
2019-03-30T15:00:55.297Z,21.02
2019-03-30T15:02:33.668Z,20.35
2019-03-30T15:04:07.961Z,22.20
2019-03-30T15:05:42.502Z,18.77
2019-03-30T15:07:16.777Z,29.60
2019-03-30T15:08:51.007Z,23.95
2019-03-30T15:10:26.696Z,18.92
2019-03-30T15:12:01.165Z,22.73
2019-03-30T15:13:35.601Z,21.57
2019-03-30T15:15:10.620Z,20.95
2019-03-30T15:16:44.964Z,22.27
2019-03-30T15:18:19.532Z,23.45
2019-03-30T15:19:53.859Z,21.48
2019-03-30T15:21:29.275Z,21.35
2019-03-30T15:23:03.528Z,19.60
2019-03-30T15:24:38.003Z,27.95
2019-03-30T15:26:12.319Z,25.32
2019-03-30T15:27:46.554Z,17.65
2019-03-30T15:29:20.971Z,17.92
2019-03-30T15:30:55.573Z,17.95
2019-03-30T15:32:29.800Z,24.55
2019-03-30T15:34:04.062Z,25.97
2019-03-30T15:35:38.373Z,18.00
2019-03-30T15:37:12.920Z,26.33
2019-03-30T15:38:47.177Z,27.98
2019-03-30T15:40:21.502Z,22.27
2019-03-30T15:41:55.730Z,19.57
2019-03-30T15:43:37.937Z,33.20
2019-03-30T15:45:10.632Z,22.17
2019-03-30T15:46:44.946Z,20.10
2019-03-30T15:48:19.207Z,26.68
2019-03-30T15:49:53.843Z,38.60
2019-03-30T15:51:28.176Z,27.37
2019-03-30T15:53:02.581Z,23.27
2019-03-30T15:54:37.329Z,18.90
2019-03-30T15:56:12.070Z,26.75
2019-03-30T15:57:46.290Z,36.80
2019-03-30T15:59:20.516Z,29.05
2019-03-30T16:00:54.837Z,103.38
2019-03-30T16:02:29.193Z,115.15
2019-03-30T16:04:03.602Z,70.70
2019-03-30T16:05:37.910Z,80.53
2019-03-30T16:07:12.266Z,37.63
2019-03-30T16:08:46.586Z,39.38
2019-03-30T16:10:20.897Z,33.73
2019-03-30T16:11:55.131Z,53.70
2019-03-30T16:13:29.463Z,46.13
2019-03-30T16:15:05.774Z,50.30
2019-03-30T16:16:40.022Z,40.58
2019-03-30T16:18:14.335Z,67.45
2019-03-30T16:19:48.661Z,48.15
2019-03-30T16:21:23.375Z,45.60
2019-03-30T16:22:57.767Z,37.50
2019-03-30T16:24:33.466Z,37.38
2019-03-30T16:26:07.761Z,42.03
2019-03-30T16:27:42.326Z,37.60
2019-03-30T16:29:19.649Z,48.17
2019-03-30T16:30:54.574Z,40.12
2019-03-30T16:32:28.785Z,57.48
2019-03-30T16:34:03.339Z,76.05
2019-03-30T16:35:37.552Z,61.48
2019-03-30T16:37:11.821Z,52.03
2019-03-30T16:38:46.147Z,81.92
2019-03-30T16:40:20.511Z,72.87
2019-03-30T16:41:54.731Z,69.27
2019-03-30T16:43:29.058Z,66.10
2019-03-30T16:45:03.822Z,74.72
2019-03-30T16:46:40.099Z,61.68
2019-03-30T16:48:14.809Z,70.08
2019-03-30T16:49:49.202Z,59.15
2019-03-30T16:51:23.452Z,54.63
2019-03-30T16:52:57.922Z,85.12
2019-03-30T16:54:32.219Z,61.08
2019-03-30T16:56:07.729Z,106.03
2019-03-30T16:57:44.070Z,101.15
2019-03-30T16:59:18.596Z,131.80
2019-03-30T17:00:56.678Z,99.45
2019-03-30T17:02:29.505Z,62.55
2019-03-30T17:04:06.538Z,78.25
2019-03-30T17:05:42.904Z,84.87
2019-03-30T17:07:18.245Z,80.15
2019-03-30T17:08:54.489Z,70.20
2019-03-30T17:10:28.730Z,70.92
2019-03-30T17:12:03.324Z,72.75
2019-03-30T17:13:39.147Z,51.42
2019-03-30T17:15:13.505Z,57.70
2019-03-30T17:16:47.797Z,61.92
2019-03-30T17:18:22.378Z,65.80
2019-03-30T17:19:58.136Z,85.85
2019-03-30T17:21:34.084Z,107.07
2019-03-30T17:23:08.330Z,128.25
2019-03-30T17:24:42.966Z,116.93
2019-03-30T17:26:18.463Z,138.00
2019-03-30T17:27:58.946Z,146.90
2019-03-30T17:29:33.444Z,174.65
2019-03-30T17:31:11.209Z,108.52
2019-03-30T17:32:46.938Z,138.82
2019-03-30T17:34:21.306Z,52.25
2019-03-30T17:35:56.028Z,31.60
2019-03-30T17:37:32.699Z,32.83
2019-03-30T17:39:11.467Z,30.70
2019-03-30T17:40:46.613Z,67.08
2019-03-30T17:42:24.066Z,68.62
2019-03-30T17:43:58.711Z,99.77
2019-03-30T17:45:33.994Z,152.87
2019-03-30T17:47:10.879Z,209.45
2019-03-30T17:48:46.604Z,309.80
2019-03-30T17:50:21.272Z,246.00
2019-03-30T17:51:55.617Z,229.40
2019-03-30T17:53:29.940Z,192.32
2019-03-30T17:55:04.637Z,200.32
2019-03-30T17:56:39.160Z,202.68
2019-03-30T17:58:13.784Z,184.67
2019-03-30T17:59:48.486Z,202.95
2019-03-30T18:01:22.768Z,190.45
2019-03-30T18:02:57.323Z,158.87
2019-03-30T18:04:31.655Z,147.43
2019-03-30T18:06:06.005Z,141.28
2019-03-30T18:07:40.265Z,128.25
2019-03-30T18:09:16.297Z,122.15
2019-03-30T18:10:50.618Z,124.70
2019-03-30T18:12:24.922Z,101.10
2019-03-30T18:13:59.275Z,111.32
2019-03-30T18:15:34.882Z,217.82
2019-03-30T18:17:09.703Z,184.93
2019-03-30T18:18:43.963Z,93.37
2019-03-30T18:20:18.344Z,68.50
2019-03-30T18:21:54.784Z,54.53
2019-03-30T18:23:29.091Z,67.35
2019-03-30T18:25:03.406Z,56.50
2019-03-30T18:26:37.846Z,62.83
2019-03-30T18:28:26.247Z,76.60
2019-03-30T18:29:48.205Z,91.95
2019-03-30T18:31:22.515Z,49.33
2019-03-30T18:32:56.249Z,52.33
2019-03-30T18:34:31.545Z,53.70
2019-03-30T18:36:06.239Z,52.85
2019-03-30T18:37:40.848Z,62.03
2019-03-30T18:39:15.113Z,60.33
2019-03-30T18:40:49.679Z,30.15
2019-03-30T18:42:24.031Z,32.00
2019-03-30T18:43:57.937Z,36.63
2019-03-30T18:45:32.301Z,33.95
2019-03-30T18:47:06.826Z,33.05
2019-03-30T18:48:41.098Z,32.03
2019-03-30T18:50:15.325Z,30.02
2019-03-30T18:51:50.392Z,28.45
2019-03-30T18:53:24.816Z,32.20
2019-03-30T18:54:59.468Z,32.98
2019-03-30T18:56:33.772Z,53.75
2019-03-30T18:58:08.010Z,65.65
2019-03-30T18:59:42.381Z,64.55
2019-03-30T19:01:16.720Z,48.28
2019-03-30T19:02:52.319Z,46.53
2019-03-30T19:04:26.591Z,39.30
2019-03-30T19:06:01.108Z,45.80
2019-03-30T19:07:35.379Z,43.17
2019-03-30T19:09:09.706Z,43.17
2019-03-30T19:10:43.913Z,44.45
2019-03-30T19:12:19.003Z,59.67
2019-03-30T19:13:53.352Z,62.08
2019-03-30T19:15:27.578Z,53.00
2019-03-30T19:17:03.351Z,47.58
2019-03-30T19:18:37.829Z,51.28
2019-03-30T19:20:12.156Z,46.95
2019-03-30T19:21:46.495Z,39.00
2019-03-30T19:23:21.682Z,37.33
2019-03-30T19:24:56.198Z,31.65
2019-03-30T19:26:30.453Z,34.85
2019-03-30T19:28:04.744Z,29.15
2019-03-30T19:29:39.110Z,43.42
2019-03-30T19:31:13.143Z,64.67
2019-03-30T19:32:47.359Z,55.17
2019-03-30T19:34:21.673Z,45.48
2019-03-30T19:35:56.411Z,58.08
2019-03-30T19:37:31.418Z,65.52
2019-03-30T19:39:09.905Z,44.08
2019-03-30T19:40:43.602Z,59.40
2019-03-30T19:42:17.874Z,34.05
2019-03-30T19:43:55.241Z,37.78
2019-03-30T19:45:30.235Z,39.30
2019-03-30T19:47:03.927Z,33.03
2019-03-30T19:48:39.505Z,47.48
2019-03-30T19:50:15.483Z,43.92
2019-03-30T19:51:49.772Z,52.10
2019-03-30T19:53:23.542Z,43.93
2019-03-30T19:54:57.746Z,51.13
2019-03-30T19:56:32.460Z,46.70
2019-03-30T19:58:06.813Z,38.50
2019-03-30T19:59:40.456Z,39.20
2019-03-30T20:01:14.755Z,46.77
2019-03-30T20:02:48.914Z,36.43
2019-03-30T20:04:24.013Z,42.35
2019-03-30T20:05:58.744Z,37.65
2019-03-30T20:07:32.995Z,37.98
2019-03-30T20:09:09.002Z,34.18
2019-03-30T20:10:43.373Z,36.35
2019-03-30T20:12:17.725Z,53.70
2019-03-30T20:13:51.415Z,71.80
2019-03-30T20:15:26.134Z,69.12
2019-03-30T20:17:00.459Z,73.25